sensor_id;sensor_type;location;lat;lon;timestamp;P1;durP1;ratioP1;P2;durP2;ratioP2
20906;SDS011;10613;50.966;5.814;2024-03-06T00:02:26;2.00;;;2.00;;
20906;SDS011;10613;50.966;5.814;2024-03-06T00:06:33;4.50;;;2.50;;
20906;SDS011;10613;50.966;5.814;2024-03-06T00:10:40;1.75;;;1.75;;
20906;SDS011;10613;50.966;5.814;2024-03-06T00:14:47;2.00;;;2.00;;
20906;SDS011;10613;50.966;5.814;2024-03-06T00:18:54;2.00;;;2.00;;
20906;SDS011;10613;50.966;5.814;2024-03-06T00:23:01;3.00;;;3.00;;
20906;SDS011;10613;50.966;5.814;2024-03-06T00:27:08;2.00;;;2.00;;
20906;SDS011;10613;50.966;5.814;2024-03-06T00:31:16;2.00;;;2.00;;
20906;SDS011;10613;50.966;5.814;2024-03-06T00:35:23;3.50;;;3.50;;
20906;SDS011;10613;50.966;5.814;2024-03-06T00:39:30;2.50;;;2.50;;
20906;SDS011;10613;50.966;5.814;2024-03-06T00:43:39;2.00;;;2.00;;
20906;SDS011;10613;50.966;5.814;2024-03-06T00:47:46;1.00;;;1.00;;
20906;SDS011;10613;50.966;5.814;2024-03-06T00:51:54;1.25;;;1.25;;
20906;SDS011;10613;50.966;5.814;2024-03-06T00:56:02;1.25;;;1.25;;
20906;SDS011;10613;50.966;5.814;2024-03-06T01:00:09;2.00;;;2.00;;
20906;SDS011;10613;50.966;5.814;2024-03-06T01:04:19;3.00;;;3.00;;
20906;SDS011;10613;50.966;5.814;2024-03-06T01:08:26;2.00;;;2.00;;
20906;SDS011;10613;50.966;5.814;2024-03-06T01:12:33;2.00;;;2.00;;
20906;SDS011;10613;50.966;5.814;2024-03-06T01:16:40;2.00;;;2.00;;
20906;SDS011;10613;50.966;5.814;2024-03-06T01:20:47;2.00;;;2.00;;
20906;SDS011;10613;50.966;5.814;2024-03-06T01:24:54;1.75;;;1.75;;
20906;SDS011;10613;50.966;5.814;2024-03-06T01:29:01;4.75;;;3.50;;
20906;SDS011;10613;50.966;5.814;2024-03-06T01:33:08;2.00;;;2.00;;
20906;SDS011;10613;50.966;5.814;2024-03-06T01:37:16;2.00;;;2.00;;
20906;SDS011;10613;50.966;5.814;2024-03-06T01:41:23;2.00;;;2.00;;
20906;SDS011;10613;50.966;5.814;2024-03-06T01:45:31;2.00;;;2.00;;
20906;SDS011;10613;50.966;5.814;2024-03-06T01:49:39;1.50;;;1.50;;
20906;SDS011;10613;50.966;5.814;2024-03-06T01:53:46;3.75;;;2.00;;
20906;SDS011;10613;50.966;5.814;2024-03-06T01:57:54;2.00;;;2.00;;
20906;SDS011;10613;50.966;5.814;2024-03-06T02:02:01;1.00;;;1.00;;
20906;SDS011;10613;50.966;5.814;2024-03-06T02:06:10;4.00;;;4.00;;
20906;SDS011;10613;50.966;5.814;2024-03-06T02:10:17;4.00;;;1.50;;
20906;SDS011;10613;50.966;5.814;2024-03-06T02:14:24;2.00;;;2.00;;
20906;SDS011;10613;50.966;5.814;2024-03-06T02:18:31;2.00;;;2.00;;
20906;SDS011;10613;50.966;5.814;2024-03-06T02:22:39;2.00;;;2.00;;
20906;SDS011;10613;50.966;5.814;2024-03-06T02:26:45;3.50;;;3.50;;
20906;SDS011;10613;50.966;5.814;2024-03-06T02:30:52;1.00;;;1.00;;
20906;SDS011;10613;50.966;5.814;2024-03-06T02:35:00;1.50;;;1.50;;
20906;SDS011;10613;50.966;5.814;2024-03-06T02:39:08;1.25;;;1.25;;
20906;SDS011;10613;50.966;5.814;2024-03-06T02:43:15;2.50;;;2.50;;
20906;SDS011;10613;50.966;5.814;2024-03-06T02:47:22;2.00;;;2.00;;
20906;SDS011;10613;50.966;5.814;2024-03-06T02:51:29;2.00;;;2.00;;
20906;SDS011;10613;50.966;5.814;2024-03-06T02:55:36;1.25;;;1.25;;
20906;SDS011;10613;50.966;5.814;2024-03-06T02:59:43;2.00;;;2.00;;
20906;SDS011;10613;50.966;5.814;2024-03-06T03:03:50;2.00;;;2.00;;
20906;SDS011;10613;50.966;5.814;2024-03-06T03:07:57;2.50;;;2.50;;
20906;SDS011;10613;50.966;5.814;2024-03-06T03:12:05;2.00;;;2.00;;
20906;SDS011;10613;50.966;5.814;2024-03-06T03:16:15;4.00;;;4.00;;
20906;SDS011;10613;50.966;5.814;2024-03-06T03:20:21;2.00;;;2.00;;
20906;SDS011;10613;50.966;5.814;2024-03-06T03:24:28;1.00;;;1.00;;
20906;SDS011;10613;50.966;5.814;2024-03-06T03:28:38;2.00;;;2.00;;
20906;SDS011;10613;50.966;5.814;2024-03-06T03:32:45;3.00;;;3.00;;
20906;SDS011;10613;50.966;5.814;2024-03-06T03:36:52;2.00;;;2.00;;
20906;SDS011;10613;50.966;5.814;2024-03-06T03:40:59;3.00;;;2.00;;
20906;SDS011;10613;50.966;5.814;2024-03-06T03:45:06;2.00;;;2.00;;
20906;SDS011;10613;50.966;5.814;2024-03-06T03:49:13;1.00;;;1.00;;
20906;SDS011;10613;50.966;5.814;2024-03-06T03:53:20;2.00;;;2.00;;
20906;SDS011;10613;50.966;5.814;2024-03-06T03:57:34;1.25;;;1.25;;
20906;SDS011;10613;50.966;5.814;2024-03-06T04:01:41;5.00;;;5.00;;
20906;SDS011;10613;50.966;5.814;2024-03-06T04:05:50;2.00;;;2.00;;
20906;SDS011;10613;50.966;5.814;2024-03-06T04:09:57;1.25;;;1.25;;
20906;SDS011;10613;50.966;5.814;2024-03-06T04:14:05;2.00;;;2.00;;
20906;SDS011;10613;50.966;5.814;2024-03-06T04:18:12;2.00;;;2.00;;
20906;SDS011;10613;50.966;5.814;2024-03-06T04:22:19;1.00;;;1.00;;
20906;SDS011;10613;50.966;5.814;2024-03-06T04:26:26;4.00;;;4.00;;
20906;SDS011;10613;50.966;5.814;2024-03-06T04:30:33;2.00;;;2.00;;
20906;SDS011;10613;50.966;5.814;2024-03-06T04:34:40;1.00;;;1.00;;
20906;SDS011;10613;50.966;5.814;2024-03-06T04:38:47;2.00;;;2.00;;
20906;SDS011;10613;50.966;5.814;2024-03-06T04:42:55;2.00;;;2.00;;
20906;SDS011;10613;50.966;5.814;2024-03-06T04:47:01;2.00;;;2.00;;
20906;SDS011;10613;50.966;5.814;2024-03-06T04:51:08;2.00;;;2.00;;
20906;SDS011;10613;50.966;5.814;2024-03-06T04:55:17;2.00;;;2.00;;
20906;SDS011;10613;50.966;5.814;2024-03-06T04:59:32;1.00;;;1.00;;
20906;SDS011;10613;50.966;5.814;2024-03-06T05:03:39;1.25;;;1.25;;
20906;SDS011;10613;50.966;5.814;2024-03-06T05:07:46;2.00;;;2.00;;
20906;SDS011;10613;50.966;5.814;2024-03-06T05:11:53;2.00;;;2.00;;
20906;SDS011;10613;50.966;5.814;2024-03-06T05:16:00;2.00;;;2.00;;
20906;SDS011;10613;50.966;5.814;2024-03-06T05:20:07;1.00;;;1.00;;
20906;SDS011;10613;50.966;5.814;2024-03-06T05:24:14;1.25;;;1.25;;
20906;SDS011;10613;50.966;5.814;2024-03-06T05:28:21;2.00;;;2.00;;
20906;SDS011;10613;50.966;5.814;2024-03-06T05:32:28;2.00;;;2.00;;
20906;SDS011;10613;50.966;5.814;2024-03-06T05:36:35;2.00;;;2.00;;
20906;SDS011;10613;50.966;5.814;2024-03-06T05:40:42;2.00;;;2.00;;
20906;SDS011;10613;50.966;5.814;2024-03-06T05:44:52;3.00;;;3.00;;
20906;SDS011;10613;50.966;5.814;2024-03-06T05:49:01;4.00;;;4.00;;
20906;SDS011;10613;50.966;5.814;2024-03-06T05:53:09;3.50;;;3.50;;
20906;SDS011;10613;50.966;5.814;2024-03-06T05:57:17;2.00;;;2.00;;
20906;SDS011;10613;50.966;5.814;2024-03-06T06:01:24;1.00;;;1.00;;
20906;SDS011;10613;50.966;5.814;2024-03-06T06:05:31;2.00;;;2.00;;
20906;SDS011;10613;50.966;5.814;2024-03-06T06:09:38;2.50;;;2.50;;
20906;SDS011;10613;50.966;5.814;2024-03-06T06:13:45;3.50;;;2.00;;
20906;SDS011;10613;50.966;5.814;2024-03-06T06:17:52;1.75;;;1.75;;
20906;SDS011;10613;50.966;5.814;2024-03-06T06:21:59;1.50;;;1.50;;
20906;SDS011;10613;50.966;5.814;2024-03-06T06:26:06;1.75;;;1.75;;
20906;SDS011;10613;50.966;5.814;2024-03-06T06:30:13;1.00;;;1.00;;
20906;SDS011;10613;50.966;5.814;2024-03-06T06:34:20;2.00;;;2.00;;
20906;SDS011;10613;50.966;5.814;2024-03-06T06:38:34;2.00;;;2.00;;
20906;SDS011;10613;50.966;5.814;2024-03-06T06:42:44;1.75;;;1.75;;
20906;SDS011;10613;50.966;5.814;2024-03-06T06:46:54;4.00;;;4.00;;
20906;SDS011;10613;50.966;5.814;2024-03-06T06:51:01;4.00;;;4.00;;
20906;SDS011;10613;50.966;5.814;2024-03-06T06:55:09;4.25;;;4.25;;
20906;SDS011;10613;50.966;5.814;2024-03-06T06:59:18;2.00;;;2.00;;
20906;SDS011;10613;50.966;5.814;2024-03-06T07:03:27;2.00;;;2.00;;
20906;SDS011;10613;50.966;5.814;2024-03-06T07:07:36;4.00;;;4.00;;
20906;SDS011;10613;50.966;5.814;2024-03-06T07:11:50;2.00;;;2.00;;
20906;SDS011;10613;50.966;5.814;2024-03-06T07:15:57;1.25;;;1.25;;
20906;SDS011;10613;50.966;5.814;2024-03-06T07:20:04;2.00;;;2.00;;
20906;SDS011;10613;50.966;5.814;2024-03-06T07:24:13;2.00;;;2.00;;
20906;SDS011;10613;50.966;5.814;2024-03-06T07:28:20;1.75;;;1.75;;
20906;SDS011;10613;50.966;5.814;2024-03-06T07:32:28;1.75;;;1.75;;
20906;SDS011;10613;50.966;5.814;2024-03-06T07:36:35;1.00;;;1.00;;
20906;SDS011;10613;50.966;5.814;2024-03-06T07:40:42;2.50;;;2.50;;
20906;SDS011;10613;50.966;5.814;2024-03-06T07:44:49;4.75;;;4.75;;
20906;SDS011;10613;50.966;5.814;2024-03-06T07:48:57;5.00;;;5.00;;
20906;SDS011;10613;50.966;5.814;2024-03-06T07:53:05;2.00;;;2.00;;
20906;SDS011;10613;50.966;5.814;2024-03-06T07:57:12;1.75;;;1.75;;
20906;SDS011;10613;50.966;5.814;2024-03-06T08:01:19;1.75;;;1.75;;
20906;SDS011;10613;50.966;5.814;2024-03-06T08:05:26;1.00;;;1.00;;
20906;SDS011;10613;50.966;5.814;2024-03-06T08:09:33;1.00;;;1.00;;
20906;SDS011;10613;50.966;5.814;2024-03-06T08:13:40;1.00;;;1.00;;
20906;SDS011;10613;50.966;5.814;2024-03-06T08:17:47;3.00;;;2.00;;
20906;SDS011;10613;50.966;5.814;2024-03-06T08:21:55;1.25;;;1.25;;
20906;SDS011;10613;50.966;5.814;2024-03-06T08:26:02;2.00;;;2.00;;
20906;SDS011;10613;50.966;5.814;2024-03-06T08:30:09;1.75;;;1.75;;
20906;SDS011;10613;50.966;5.814;2024-03-06T08:34:16;2.00;;;2.00;;
20906;SDS011;10613;50.966;5.814;2024-03-06T08:38:31;2.00;;;2.00;;
20906;SDS011;10613;50.966;5.814;2024-03-06T08:42:38;1.75;;;1.75;;
20906;SDS011;10613;50.966;5.814;2024-03-06T08:46:45;4.00;;;4.00;;
20906;SDS011;10613;50.966;5.814;2024-03-06T08:50:52;3.75;;;3.75;;
20906;SDS011;10613;50.966;5.814;2024-03-06T08:54:59;2.00;;;2.00;;
20906;SDS011;10613;50.966;5.814;2024-03-06T08:59:06;2.25;;;2.25;;
20906;SDS011;10613;50.966;5.814;2024-03-06T09:03:13;2.25;;;2.25;;
20906;SDS011;10613;50.966;5.814;2024-03-06T09:07:20;2.00;;;2.00;;
20906;SDS011;10613;50.966;5.814;2024-03-06T09:11:30;1.50;;;1.50;;
20906;SDS011;10613;50.966;5.814;2024-03-06T09:15:37;2.00;;;2.00;;
20906;SDS011;10613;50.966;5.814;2024-03-06T09:19:44;2.00;;;2.00;;
20906;SDS011;10613;50.966;5.814;2024-03-06T09:23:51;1.50;;;1.50;;
20906;SDS011;10613;50.966;5.814;2024-03-06T09:27:58;2.00;;;2.00;;
20906;SDS011;10613;50.966;5.814;2024-03-06T09:32:07;2.00;;;2.00;;
20906;SDS011;10613;50.966;5.814;2024-03-06T09:36:14;2.00;;;2.00;;
20906;SDS011;10613;50.966;5.814;2024-03-06T09:40:22;1.75;;;1.75;;
20906;SDS011;10613;50.966;5.814;2024-03-06T09:44:29;1.50;;;1.50;;
20906;SDS011;10613;50.966;5.814;2024-03-06T09:48:36;1.00;;;1.00;;
20906;SDS011;10613;50.966;5.814;2024-03-06T09:52:49;2.00;;;2.00;;
20906;SDS011;10613;50.966;5.814;2024-03-06T09:56:57;1.00;;;1.00;;
20906;SDS011;10613;50.966;5.814;2024-03-06T10:01:05;1.00;;;1.00;;
20906;SDS011;10613;50.966;5.814;2024-03-06T10:05:23;2.00;;;2.00;;
20906;SDS011;10613;50.966;5.814;2024-03-06T10:09:30;3.50;;;3.00;;
20906;SDS011;10613;50.966;5.814;2024-03-06T10:13:39;2.00;;;2.00;;
20906;SDS011;10613;50.966;5.814;2024-03-06T10:17:46;2.00;;;2.00;;
20906;SDS011;10613;50.966;5.814;2024-03-06T10:21:53;1.75;;;1.75;;
20906;SDS011;10613;50.966;5.814;2024-03-06T10:26:00;3.50;;;3.50;;
20906;SDS011;10613;50.966;5.814;2024-03-06T10:30:07;1.75;;;1.00;;
20906;SDS011;10613;50.966;5.814;2024-03-06T10:34:17;2.00;;;2.00;;
20906;SDS011;10613;50.966;5.814;2024-03-06T10:38:31;2.00;;;2.00;;
20906;SDS011;10613;50.966;5.814;2024-03-06T10:42:42;1.50;;;1.50;;
20906;SDS011;10613;50.966;5.814;2024-03-06T10:47:09;3.50;;;3.50;;
20906;SDS011;10613;50.966;5.814;2024-03-06T10:51:16;2.50;;;2.00;;
20906;SDS011;10613;50.966;5.814;2024-03-06T10:55:24;1.00;;;1.00;;
20906;SDS011;10613;50.966;5.814;2024-03-06T10:59:32;1.50;;;1.50;;
20906;SDS011;10613;50.966;5.814;2024-03-06T11:03:41;1.25;;;1.25;;
20906;SDS011;10613;50.966;5.814;2024-03-06T11:07:48;1.50;;;1.50;;
20906;SDS011;10613;50.966;5.814;2024-03-06T11:11:56;2.00;;;2.00;;
20906;SDS011;10613;50.966;5.814;2024-03-06T11:16:03;2.00;;;2.00;;
20906;SDS011;10613;50.966;5.814;2024-03-06T11:20:16;1.00;;;1.00;;
20906;SDS011;10613;50.966;5.814;2024-03-06T11:24:32;1.25;;;1.25;;
20906;SDS011;10613;50.966;5.814;2024-03-06T11:28:40;2.00;;;2.00;;
20906;SDS011;10613;50.966;5.814;2024-03-06T11:32:59;2.00;;;2.00;;
20906;SDS011;10613;50.966;5.814;2024-03-06T11:37:07;1.50;;;1.50;;
20906;SDS011;10613;50.966;5.814;2024-03-06T11:41:16;2.00;;;2.00;;
20906;SDS011;10613;50.966;5.814;2024-03-06T11:45:24;2.00;;;2.00;;
20906;SDS011;10613;50.966;5.814;2024-03-06T11:49:32;2.00;;;2.00;;
20906;SDS011;10613;50.966;5.814;2024-03-06T11:53:44;1.00;;;1.00;;
20906;SDS011;10613;50.966;5.814;2024-03-06T11:57:51;1.00;;;1.00;;
20906;SDS011;10613;50.966;5.814;2024-03-06T12:02:04;1.25;;;1.25;;
20906;SDS011;10613;50.966;5.814;2024-03-06T12:06:11;2.00;;;2.00;;
20906;SDS011;10613;50.966;5.814;2024-03-06T12:10:18;1.75;;;1.75;;
20906;SDS011;10613;50.966;5.814;2024-03-06T12:14:25;1.00;;;1.00;;
20906;SDS011;10613;50.966;5.814;2024-03-06T12:18:33;1.00;;;1.00;;
20906;SDS011;10613;50.966;5.814;2024-03-06T12:22:53;1.00;;;1.00;;
20906;SDS011;10613;50.966;5.814;2024-03-06T12:27:01;1.50;;;1.50;;
20906;SDS011;10613;50.966;5.814;2024-03-06T12:31:08;2.00;;;2.00;;
20906;SDS011;10613;50.966;5.814;2024-03-06T12:35:23;1.00;;;1.00;;
20906;SDS011;10613;50.966;5.814;2024-03-06T12:39:31;1.50;;;1.50;;
20906;SDS011;10613;50.966;5.814;2024-03-06T12:43:39;1.50;;;1.50;;
20906;SDS011;10613;50.966;5.814;2024-03-06T12:47:47;2.00;;;2.00;;
20906;SDS011;10613;50.966;5.814;2024-03-06T12:51:56;1.25;;;1.25;;
20906;SDS011;10613;50.966;5.814;2024-03-06T12:56:03;1.25;;;1.25;;
20906;SDS011;10613;50.966;5.814;2024-03-06T13:00:10;2.00;;;2.00;;
20906;SDS011;10613;50.966;5.814;2024-03-06T13:04:22;2.00;;;2.00;;
20906;SDS011;10613;50.966;5.814;2024-03-06T13:08:36;2.25;;;2.25;;
20906;SDS011;10613;50.966;5.814;2024-03-06T13:12:43;1.00;;;1.00;;
20906;SDS011;10613;50.966;5.814;2024-03-06T13:16:50;2.00;;;2.00;;
20906;SDS011;10613;50.966;5.814;2024-03-06T13:20:57;2.00;;;2.00;;
20906;SDS011;10613;50.966;5.814;2024-03-06T13:25:05;1.75;;;1.75;;
20906;SDS011;10613;50.966;5.814;2024-03-06T13:29:13;1.75;;;1.75;;
20906;SDS011;10613;50.966;5.814;2024-03-06T13:33:20;1.00;;;1.00;;
20906;SDS011;10613;50.966;5.814;2024-03-06T13:37:27;1.75;;;1.75;;
20906;SDS011;10613;50.966;5.814;2024-03-06T13:41:34;1.75;;;1.75;;
20906;SDS011;10613;50.966;5.814;2024-03-06T13:45:50;2.00;;;1.00;;
20906;SDS011;10613;50.966;5.814;2024-03-06T13:49:57;1.00;;;1.00;;
20906;SDS011;10613;50.966;5.814;2024-03-06T13:54:13;1.00;;;1.00;;
20906;SDS011;10613;50.966;5.814;2024-03-06T13:58:20;1.00;;;1.00;;
20906;SDS011;10613;50.966;5.814;2024-03-06T14:02:27;2.00;;;2.00;;
20906;SDS011;10613;50.966;5.814;2024-03-06T14:06:34;2.00;;;2.00;;
20906;SDS011;10613;50.966;5.814;2024-03-06T14:10:41;3.00;;;3.00;;
20906;SDS011;10613;50.966;5.814;2024-03-06T14:14:48;3.00;;;3.00;;
20906;SDS011;10613;50.966;5.814;2024-03-06T14:18:55;1.25;;;1.25;;
20906;SDS011;10613;50.966;5.814;2024-03-06T14:23:02;2.00;;;2.00;;
20906;SDS011;10613;50.966;5.814;2024-03-06T14:27:09;1.00;;;1.00;;
20906;SDS011;10613;50.966;5.814;2024-03-06T14:31:16;1.50;;;1.50;;
20906;SDS011;10613;50.966;5.814;2024-03-06T14:35:23;1.00;;;1.00;;
20906;SDS011;10613;50.966;5.814;2024-03-06T14:39:31;1.00;;;1.00;;
20906;SDS011;10613;50.966;5.814;2024-03-06T14:43:38;1.00;;;1.00;;
20906;SDS011;10613;50.966;5.814;2024-03-06T14:47:45;1.00;;;1.00;;
20906;SDS011;10613;50.966;5.814;2024-03-06T14:51:52;1.25;;;1.25;;
20906;SDS011;10613;50.966;5.814;2024-03-06T14:55:59;2.00;;;2.00;;
20906;SDS011;10613;50.966;5.814;2024-03-06T15:00:06;2.00;;;1.75;;
20906;SDS011;10613;50.966;5.814;2024-03-06T15:04:13;2.00;;;2.00;;
20906;SDS011;10613;50.966;5.814;2024-03-06T15:08:20;1.00;;;1.00;;
20906;SDS011;10613;50.966;5.814;2024-03-06T15:12:27;1.75;;;1.75;;
20906;SDS011;10613;50.966;5.814;2024-03-06T15:16:34;2.00;;;2.00;;
20906;SDS011;10613;50.966;5.814;2024-03-06T15:20:41;1.25;;;1.25;;
20906;SDS011;10613;50.966;5.814;2024-03-06T15:24:48;1.00;;;1.00;;
20906;SDS011;10613;50.966;5.814;2024-03-06T15:28:55;1.00;;;1.00;;
20906;SDS011;10613;50.966;5.814;2024-03-06T15:33:05;1.00;;;1.00;;
20906;SDS011;10613;50.966;5.814;2024-03-06T15:37:13;1.50;;;1.50;;
20906;SDS011;10613;50.966;5.814;2024-03-06T15:41:20;1.25;;;1.25;;
20906;SDS011;10613;50.966;5.814;2024-03-06T15:45:27;2.00;;;1.00;;
20906;SDS011;10613;50.966;5.814;2024-03-06T15:49:34;1.00;;;1.00;;
20906;SDS011;10613;50.966;5.814;2024-03-06T15:53:41;1.25;;;1.25;;
20906;SDS011;10613;50.966;5.814;2024-03-06T15:57:48;4.00;;;4.00;;
20906;SDS011;10613;50.966;5.814;2024-03-06T16:01:55;2.00;;;2.00;;
20906;SDS011;10613;50.966;5.814;2024-03-06T16:06:02;2.00;;;2.00;;
20906;SDS011;10613;50.966;5.814;2024-03-06T16:10:09;1.25;;;1.25;;
20906;SDS011;10613;50.966;5.814;2024-03-06T16:14:20;1.50;;;1.50;;
20906;SDS011;10613;50.966;5.814;2024-03-06T16:18:27;2.00;;;2.00;;
20906;SDS011;10613;50.966;5.814;2024-03-06T16:22:34;1.50;;;1.50;;
20906;SDS011;10613;50.966;5.814;2024-03-06T16:26:41;1.00;;;1.00;;
20906;SDS011;10613;50.966;5.814;2024-03-06T16:31:02;1.00;;;1.00;;
20906;SDS011;10613;50.966;5.814;2024-03-06T16:35:10;1.50;;;1.50;;
20906;SDS011;10613;50.966;5.814;2024-03-06T16:39:24;1.00;;;1.00;;
20906;SDS011;10613;50.966;5.814;2024-03-06T16:43:31;1.00;;;1.00;;
20906;SDS011;10613;50.966;5.814;2024-03-06T16:47:38;2.00;;;2.00;;
20906;SDS011;10613;50.966;5.814;2024-03-06T16:51:45;1.75;;;1.75;;
20906;SDS011;10613;50.966;5.814;2024-03-06T16:55:52;1.00;;;1.00;;
20906;SDS011;10613;50.966;5.814;2024-03-06T16:59:59;1.00;;;1.00;;
20906;SDS011;10613;50.966;5.814;2024-03-06T17:04:06;1.00;;;1.00;;
20906;SDS011;10613;50.966;5.814;2024-03-06T17:08:13;2.00;;;2.00;;
20906;SDS011;10613;50.966;5.814;2024-03-06T17:12:20;2.00;;;2.00;;
20906;SDS011;10613;50.966;5.814;2024-03-06T17:16:27;1.50;;;1.50;;
20906;SDS011;10613;50.966;5.814;2024-03-06T17:20:41;2.50;;;2.50;;
20906;SDS011;10613;50.966;5.814;2024-03-06T17:24:48;2.00;;;2.00;;
20906;SDS011;10613;50.966;5.814;2024-03-06T17:28:55;1.00;;;1.00;;
20906;SDS011;10613;50.966;5.814;2024-03-06T17:33:02;2.50;;;2.50;;
20906;SDS011;10613;50.966;5.814;2024-03-06T17:37:09;1.00;;;1.00;;
20906;SDS011;10613;50.966;5.814;2024-03-06T17:41:16;1.00;;;1.00;;
20906;SDS011;10613;50.966;5.814;2024-03-06T17:45:23;1.25;;;1.25;;
20906;SDS011;10613;50.966;5.814;2024-03-06T17:49:31;2.00;;;2.00;;
20906;SDS011;10613;50.966;5.814;2024-03-06T17:53:38;1.00;;;1.00;;
20906;SDS011;10613;50.966;5.814;2024-03-06T17:57:45;1.00;;;1.00;;
20906;SDS011;10613;50.966;5.814;2024-03-06T18:01:52;1.00;;;1.00;;
20906;SDS011;10613;50.966;5.814;2024-03-06T18:05:59;1.00;;;1.00;;
20906;SDS011;10613;50.966;5.814;2024-03-06T18:10:06;1.25;;;1.25;;
20906;SDS011;10613;50.966;5.814;2024-03-06T18:14:13;1.00;;;1.00;;
20906;SDS011;10613;50.966;5.814;2024-03-06T18:18:20;1.25;;;1.25;;
20906;SDS011;10613;50.966;5.814;2024-03-06T18:22:27;2.00;;;2.00;;
20906;SDS011;10613;50.966;5.814;2024-03-06T18:26:34;1.25;;;1.25;;
20906;SDS011;10613;50.966;5.814;2024-03-06T18:30:41;1.00;;;1.00;;
20906;SDS011;10613;50.966;5.814;2024-03-06T18:34:48;2.00;;;2.00;;
20906;SDS011;10613;50.966;5.814;2024-03-06T18:38:57;2.00;;;2.00;;
20906;SDS011;10613;50.966;5.814;2024-03-06T18:43:04;1.00;;;1.00;;
20906;SDS011;10613;50.966;5.814;2024-03-06T18:47:11;1.00;;;1.00;;
20906;SDS011;10613;50.966;5.814;2024-03-06T18:51:18;1.00;;;1.00;;
20906;SDS011;10613;50.966;5.814;2024-03-06T18:55:25;1.00;;;1.00;;
20906;SDS011;10613;50.966;5.814;2024-03-06T18:59:32;1.50;;;1.50;;
20906;SDS011;10613;50.966;5.814;2024-03-06T19:03:39;2.00;;;2.00;;
20906;SDS011;10613;50.966;5.814;2024-03-06T19:07:46;2.00;;;2.00;;
20906;SDS011;10613;50.966;5.814;2024-03-06T19:11:53;1.50;;;1.50;;
20906;SDS011;10613;50.966;5.814;2024-03-06T19:16:01;2.50;;;1.00;;
20906;SDS011;10613;50.966;5.814;2024-03-06T19:20:08;1.00;;;1.00;;
20906;SDS011;10613;50.966;5.814;2024-03-06T19:24:19;1.00;;;1.00;;
20906;SDS011;10613;50.966;5.814;2024-03-06T19:28:26;2.00;;;2.00;;
20906;SDS011;10613;50.966;5.814;2024-03-06T19:32:33;1.00;;;1.00;;
20906;SDS011;10613;50.966;5.814;2024-03-06T19:36:40;2.25;;;1.25;;
20906;SDS011;10613;50.966;5.814;2024-03-06T19:40:48;2.00;;;2.00;;
20906;SDS011;10613;50.966;5.814;2024-03-06T19:44:55;1.00;;;1.00;;
20906;SDS011;10613;50.966;5.814;2024-03-06T19:49:03;2.00;;;2.00;;
20906;SDS011;10613;50.966;5.814;2024-03-06T19:53:09;1.75;;;1.75;;
20906;SDS011;10613;50.966;5.814;2024-03-06T19:57:17;2.00;;;2.00;;
20906;SDS011;10613;50.966;5.814;2024-03-06T20:01:24;2.50;;;2.50;;
20906;SDS011;10613;50.966;5.814;2024-03-06T20:05:38;2.00;;;2.00;;
20906;SDS011;10613;50.966;5.814;2024-03-06T20:09:45;4.00;;;4.00;;
20906;SDS011;10613;50.966;5.814;2024-03-06T20:13:52;3.50;;;3.50;;
20906;SDS011;10613;50.966;5.814;2024-03-06T20:17:59;2.00;;;2.00;;
20906;SDS011;10613;50.966;5.814;2024-03-06T20:22:06;5.00;;;4.75;;
20906;SDS011;10613;50.966;5.814;2024-03-06T20:26:13;5.00;;;5.00;;
20906;SDS011;10613;50.966;5.814;2024-03-06T20:30:21;2.00;;;2.00;;
20906;SDS011;10613;50.966;5.814;2024-03-06T20:34:28;4.50;;;4.50;;
20906;SDS011;10613;50.966;5.814;2024-03-06T20:38:41;3.00;;;3.00;;
20906;SDS011;10613;50.966;5.814;2024-03-06T20:42:49;2.00;;;2.00;;
20906;SDS011;10613;50.966;5.814;2024-03-06T20:46:56;4.25;;;4.25;;
20906;SDS011;10613;50.966;5.814;2024-03-06T20:51:05;2.00;;;2.00;;
20906;SDS011;10613;50.966;5.814;2024-03-06T20:55:16;4.00;;;4.00;;
20906;SDS011;10613;50.966;5.814;2024-03-06T20:59:25;4.00;;;2.00;;
20906;SDS011;10613;50.966;5.814;2024-03-06T21:03:32;2.00;;;2.00;;
20906;SDS011;10613;50.966;5.814;2024-03-06T21:07:39;4.00;;;2.00;;
20906;SDS011;10613;50.966;5.814;2024-03-06T21:11:51;2.00;;;2.00;;
20906;SDS011;10613;50.966;5.814;2024-03-06T21:16:00;4.50;;;4.50;;
20906;SDS011;10613;50.966;5.814;2024-03-06T21:20:08;4.00;;;4.00;;
20906;SDS011;10613;50.966;5.814;2024-03-06T21:24:18;3.50;;;3.50;;
20906;SDS011;10613;50.966;5.814;2024-03-06T21:28:25;5.75;;;2.75;;
20906;SDS011;10613;50.966;5.814;2024-03-06T21:32:35;5.00;;;5.00;;
20906;SDS011;10613;50.966;5.814;2024-03-06T21:36:43;4.00;;;4.00;;
20906;SDS011;10613;50.966;5.814;2024-03-06T21:40:50;4.75;;;4.75;;
20906;SDS011;10613;50.966;5.814;2024-03-06T21:44:57;2.50;;;2.50;;
20906;SDS011;10613;50.966;5.814;2024-03-06T21:49:04;4.00;;;4.00;;
20906;SDS011;10613;50.966;5.814;2024-03-06T21:53:11;4.00;;;4.00;;
20906;SDS011;10613;50.966;5.814;2024-03-06T21:57:18;4.50;;;4.50;;
20906;SDS011;10613;50.966;5.814;2024-03-06T22:01:25;4.00;;;4.00;;
20906;SDS011;10613;50.966;5.814;2024-03-06T22:05:32;4.25;;;4.00;;
20906;SDS011;10613;50.966;5.814;2024-03-06T22:09:39;4.00;;;4.00;;
20906;SDS011;10613;50.966;5.814;2024-03-06T22:13:47;4.75;;;4.75;;
20906;SDS011;10613;50.966;5.814;2024-03-06T22:17:54;10.75;;;5.00;;
20906;SDS011;10613;50.966;5.814;2024-03-06T22:22:01;5.00;;;5.00;;
20906;SDS011;10613;50.966;5.814;2024-03-06T22:26:08;7.25;;;6.50;;
20906;SDS011;10613;50.966;5.814;2024-03-06T22:30:15;5.50;;;5.50;;
20906;SDS011;10613;50.966;5.814;2024-03-06T22:34:22;5.00;;;5.00;;
20906;SDS011;10613;50.966;5.814;2024-03-06T22:38:29;5.00;;;5.00;;
20906;SDS011;10613;50.966;5.814;2024-03-06T22:42:36;4.00;;;4.00;;
20906;SDS011;10613;50.966;5.814;2024-03-06T22:46:44;4.75;;;4.75;;
20906;SDS011;10613;50.966;5.814;2024-03-06T22:50:52;6.50;;;6.50;;
20906;SDS011;10613;50.966;5.814;2024-03-06T22:54:59;5.00;;;4.00;;
20906;SDS011;10613;50.966;5.814;2024-03-06T22:59:06;7.00;;;7.00;;
20906;SDS011;10613;50.966;5.814;2024-03-06T23:03:15;6.50;;;6.50;;
20906;SDS011;10613;50.966;5.814;2024-03-06T23:07:23;8.00;;;7.50;;
20906;SDS011;10613;50.966;5.814;2024-03-06T23:11:30;9.25;;;7.25;;
20906;SDS011;10613;50.966;5.814;2024-03-06T23:15:38;10.00;;;5.50;;
20906;SDS011;10613;50.966;5.814;2024-03-06T23:19:45;7.00;;;5.00;;
20906;SDS011;10613;50.966;5.814;2024-03-06T23:23:52;5.00;;;5.00;;
20906;SDS011;10613;50.966;5.814;2024-03-06T23:27:59;7.00;;;7.00;;
20906;SDS011;10613;50.966;5.814;2024-03-06T23:32:08;7.75;;;7.50;;
20906;SDS011;10613;50.966;5.814;2024-03-06T23:36:15;7.00;;;7.00;;
20906;SDS011;10613;50.966;5.814;2024-03-06T23:40:23;9.75;;;7.25;;
20906;SDS011;10613;50.966;5.814;2024-03-06T23:44:30;7.25;;;5.50;;
20906;SDS011;10613;50.966;5.814;2024-03-06T23:48:37;5.00;;;5.00;;
20906;SDS011;10613;50.966;5.814;2024-03-06T23:52:51;5.00;;;5.00;;
20906;SDS011;10613;50.966;5.814;2024-03-06T23:56:58;9.50;;;9.50;;
